^^

Nearby METAR Reports

 

EGNV - Tees-Side, United Kingdom
Distance from station: SW 7mi, 11km
Updated: 30/11/2021 21:20
Light rain, Mostly cloudy
Light rain, Mostly cloudy
 Wind from SSW
Wind: SSW 14 mph , 22 km/h
Temperature: 10°C
Wind Chill: 7°C
Dew Point: 7°C
Humidity: 82%
Barometer: 992 hPa
Summary: Light rain
Clouds: Mostly cloudy
Visibility: 6 miles , 9 km
Cloud details: Few Clouds 518 m
Partly cloudy 610 m
Mostly cloudy 1372 m
2021/11/30 21:20 EGNV 302120Z 21012KT 9000 -RA FEW017 SCT020 BKN045 10/07 Q0992
EGXE - Leeming Raf, United Kingdom
Distance from station: SSW 23mi, 37km
Updated: 30/11/2021 21:21
Overcast
Overcast
 Wind from SSW
Wind: SSW 16 mph , 26 km/h
Temperature: 10°C
Wind Chill: 7°C
Dew Point: 8°C
Humidity: 88%
Barometer: 992 hPa
Clouds: Overcast
Visibility: 6 miles , 10 km
Cloud details: Mostly cloudy 549 m
Overcast 1524 m
2021/11/30 21:21 EGXE 302121Z 21014KT 9999 BKN018 OVC050 10/08 Q0992 TEMPO 7000 RA BKN014 RMK WHT TEMPO GRN
 
EGXZ - Topcliffe Raf, United Kingdom
Distance from station: S 27mi, 43km
Updated: 30/11/2021 20:50
Light rain, Mostly cloudy
Light rain, Mostly cloudy
 Wind from SSW
Wind: SSW 14 mph , 22 km/h
Temperature: 10°C
Wind Chill: 7°C
Dew Point: 8°C
Humidity: 88%
Barometer: 994 hPa
Summary: Light rain
Clouds: Mostly cloudy
Visibility: 6 miles , 10 km
Cloud details: Partly cloudy 457 m
Mostly cloudy 1524 m
2021/11/30 20:50 EGXZ 302050Z AUTO 21012KT 9999 -RA SCT015/// BKN050/// 10/08 Q0994
EGNT - Newcastle, United Kingdom
Distance from station: NNW 34mi, 54km
Updated: 30/11/2021 21:20
Light rain, Mostly cloudy
Light rain, Mostly cloudy
 Wind from SW
Wind: SW 10 mph , 17 km/h
Temperature: 9°C
Wind Chill: 7°C
Dew Point: 8°C
Humidity: 94%
Barometer: 990 hPa
Summary: Light rain
Clouds: Mostly cloudy
Visibility: 6 miles , 10 km
Cloud details: Few Clouds 610 m
Mostly cloudy 975 m
2021/11/30 21:20 EGNT 302120Z 22009KT 9999 -RA FEW020 BKN032 09/08 Q0990
 
EGXU - Linton-On-Ouse R, United Kingdom
Distance from station: S 37mi, 60km
Updated: 27/09/2021 01:50
NOT Current
Partly cloudy
Partly cloudy
 Wind from SW
Wind: SW 5 mph , 7 km/h
Temperature: 15°C
Dew Point: 14°C
Humidity: 94%
Barometer: 1000 hPa
Clouds: Partly cloudy
Visibility: 6 miles , 10 km
Cloud details: Mostly cloudy 1250 m
Partly cloudy 1524 m
2021/09/27 00:50 EGXU 270050Z 23004KT 9999 BKN041 SCT050 15/14 Q1000 RMK BLU
EGNM - Leeds And Bradfo, United Kingdom
Distance from station: SSW 52mi, 83km
Updated: 30/11/2021 21:20
Light rain, Mostly cloudy
Light rain, Mostly cloudy
 Wind from SW
Wind: SW 12 mph , 19 km/h
Temperature: 8°C
Wind Chill: 4°C
Dew Point: 7°C
Humidity: 93%
Barometer: 993 hPa
Summary: Light rain
Clouds: Mostly cloudy
Visibility: 6 miles , 10 km
Cloud details: Partly cloudy 244 m
Mostly cloudy 305 m
2021/11/30 21:20 EGNM 302120Z 22010KT 190V260 9999 -RA SCT008 BKN010 08/07 Q0993
 
EGOM - Spadeadam, United Kingdom
Distance from station: WNW 58mi, 94km
Updated: 30/11/2021 20:50
Rain, Mostly cloudy
Rain, Mostly cloudy
 Wind from SW
Wind: SW 12 mph , 19 km/h
Temperature: 7°C
Wind Chill: 4°C
Dew Point: 7°C
Humidity: 100%
Barometer: 990 hPa
Summary: Rain
Clouds: Mostly cloudy
Visibility: 6 miles , 9 km
Cloud details: Mostly cloudy 61 m
Mostly cloudy 274 m
2021/11/30 20:50 EGOM 302050Z AUTO 22010KT 9000 RA BKN002/// BKN009/// 07/07 Q0990
EGCN - Doncaster Sheffi, United Kingdom
Distance from station: S 77mi, 124km
Updated: 30/11/2021 21:20
Clear
Clear
 Wind from SSW
Wind: SSW 20 mph , 31 km/h
Temperature: 10°C
Wind Chill: 7°C
Dew Point: 8°C
Humidity: 88%
Barometer: 996 hPa
Summary: Clear
Visibility: greater than 7 miles , 10 km
2021/11/30 21:20 EGCN 302120Z 21017KT CAVOK 10/08 Q0996
 
EGNJ - Humberside, United Kingdom
Distance from station: SSE 80mi, 129km
Updated: 30/11/2021 21:20
Light rain, Partly cloudy
Light rain, Partly cloudy
 Wind from SW
Wind: SW 18 mph , 30 km/h
Temperature: 10°C
Wind Chill: 7°C
Dew Point: 8°C
Humidity: 88%
Barometer: 996 hPa
Summary: Light rain
Clouds: Partly cloudy
Visibility: 6 miles , 10 km
Cloud details: Partly cloudy 1189 m
2021/11/30 21:20 EGNJ 302120Z AUTO 22016KT 9999 -RA SCT039/// 10/08 Q0996 RESHGR
EGNH - Blackpool Airpor, United Kingdom
Distance from station: SW 90mi, 145km
Updated: 30/11/2021 19:50
NOT Current
Light rain, Showers, Mostly cloudy
Light rain, Showers, Mostly cloudy
 Wind from SW
Wind: SW 17 mph , 28 km/h
Temperature: 9°C
Wind Chill: 6°C
Dew Point: 9°C
Humidity: 100%
Barometer: 997 hPa
Summary: Light rain, Showers
Clouds: Mostly cloudy
Visibility: 4 miles , 7 km
Cloud details: Few Clouds 122 m
Mostly cloudy 366 m
2021/11/30 19:50 EGNH 301950Z 22015KT 7000 -SHRA FEW004 BKN012 09/09 Q0997
 
EGXP - Scampton Raf, United Kingdom
Distance from station: SSE 94mi, 151km
Updated: 30/11/2021 20:50
Mostly cloudy
Mostly cloudy
 Wind from SW
Wind: SW 17 mph , 28 km/h
Temperature: 10°C
Wind Chill: 7°C
Dew Point: 8°C
Humidity: 88%
Barometer: 996 hPa
Clouds: Mostly cloudy
Visibility: 6 miles , 10 km
Cloud details: Few Clouds 549 m
Mostly cloudy 2134 m
Mostly cloudy 3962 m
2021/11/30 20:50 EGXP 302050Z AUTO 23015KT 9999 // FEW018/// BKN070/// BKN130/// 10/08 Q0996
EGCC - Manchester Intl, United Kingdom
Distance from station: SSW 94mi, 152km
Updated: 30/11/2021 21:20
Light rain, Thunderstorm
Light rain, Thunderstorm
 Wind from SSW
Wind: SSW 12 mph , 19 km/h
Temperature: 9°C
Wind Chill: 6°C
Dew Point: 8°C
Humidity: 94%
Barometer: 995 hPa
Summary: Light rain
Clouds: Thunderstorm
Visibility: 4 miles , 6 km
Cloud details: Few Clouds 610 m
Mostly cloudy 914 m
Mostly cloudy 1311 m
2021/11/30 21:20 EGCC 302120Z AUTO 20010KT 160V230 6000 -RA FEW020/// BKN030/// BKN043/// //////TCU 09/08 Q0995